createdAt,value
2018-06-23T00:00:55.340Z,13.00
2018-06-23T00:03:24.009Z,13.00
2018-06-23T00:05:52.691Z,12.70
2018-06-23T00:08:22.013Z,12.70
2018-06-23T00:10:50.733Z,12.50
2018-06-23T00:13:19.429Z,12.50
2018-06-23T00:15:48.316Z,12.50
2018-06-23T00:18:16.933Z,12.40
2018-06-23T00:20:45.536Z,12.40
2018-06-23T00:23:14.401Z,12.50
2018-06-23T00:25:48.685Z,12.40
2018-06-23T00:28:17.313Z,12.30
2018-06-23T00:30:45.940Z,12.30
2018-06-23T00:33:14.532Z,12.40
2018-06-23T00:35:43.156Z,12.40
2018-06-23T00:38:11.850Z,12.40
2018-06-23T00:40:40.726Z,12.40
2018-06-23T00:43:09.347Z,12.50
2018-06-23T00:45:38.087Z,12.50
2018-06-23T00:48:06.786Z,12.30
2018-06-23T00:50:35.458Z,12.40
2018-06-23T00:53:04.064Z,12.40
2018-06-23T00:55:32.687Z,12.40
2018-06-23T00:58:01.245Z,12.30
2018-06-23T01:00:30.075Z,12.30
2018-06-23T01:02:59.278Z,12.30
2018-06-23T01:05:28.203Z,12.30
2018-06-23T01:07:56.768Z,12.30
2018-06-23T01:10:26.062Z,12.30
2018-06-23T01:12:54.820Z,12.30
2018-06-23T01:15:24.181Z,12.20
2018-06-23T01:20:21.198Z,12.20
2018-06-23T01:22:49.827Z,12.20
2018-06-23T01:25:18.727Z,12.30
2018-06-23T01:27:47.392Z,12.20
2018-06-23T01:30:16.414Z,12.20
2018-06-23T01:32:45.905Z,12.20
2018-06-23T01:35:14.544Z,12.20
2018-06-23T01:37:43.229Z,12.20
2018-06-23T01:40:11.820Z,12.20
2018-06-23T01:42:40.567Z,12.20
2018-06-23T01:45:09.235Z,12.20
2018-06-23T01:47:37.865Z,12.20
2018-06-23T01:50:06.523Z,12.20
2018-06-23T01:52:35.169Z,12.20
2018-06-23T01:55:03.754Z,12.10
2018-06-23T01:57:33.257Z,12.10
2018-06-23T02:00:01.776Z,12.10
2018-06-23T02:02:30.364Z,12.10
2018-06-23T02:04:59.327Z,12.00
2018-06-23T02:07:27.963Z,12.10
2018-06-23T02:09:56.611Z,12.10
2018-06-23T02:12:25.344Z,12.10
2018-06-23T02:15:00.175Z,12.00
2018-06-23T02:17:34.117Z,11.90
2018-06-23T02:20:08.007Z,11.90
2018-06-23T02:23:41.360Z,11.90
2018-06-23T02:26:15.224Z,11.90
2018-06-23T02:28:49.101Z,11.90
2018-06-23T02:31:22.923Z,11.90
2018-06-23T02:33:57.056Z,11.90
2018-06-23T02:36:25.782Z,12.00
2018-06-23T02:38:54.469Z,12.00
2018-06-23T02:41:27.287Z,12.00
2018-06-23T02:43:55.923Z,12.00
2018-06-23T02:46:24.529Z,12.00
2018-06-23T02:48:53.522Z,12.00
2018-06-23T02:51:22.231Z,12.00
2018-06-23T02:53:51.155Z,12.00
2018-06-23T02:56:20.191Z,12.00
2018-06-23T02:58:48.943Z,12.00
2018-06-23T03:01:18.875Z,12.00
2018-06-23T03:03:47.582Z,11.90
2018-06-23T03:06:16.372Z,11.90
2018-06-23T03:08:45.075Z,11.90
2018-06-23T03:11:13.699Z,11.90
2018-06-23T03:13:42.382Z,11.90
2018-06-23T03:16:11.027Z,11.90
2018-06-23T03:18:39.612Z,11.90
2018-06-23T03:21:08.978Z,11.90
2018-06-23T03:23:37.530Z,11.90
2018-06-23T03:26:06.287Z,11.80
2018-06-23T03:28:34.912Z,11.90
2018-06-23T03:31:03.570Z,11.80
2018-06-23T03:33:32.260Z,11.80
2018-06-23T03:36:01.617Z,11.80
2018-06-23T03:38:30.253Z,11.80
2018-06-23T03:40:58.968Z,11.80
2018-06-23T03:43:27.975Z,11.80
2018-06-23T03:45:56.626Z,11.70
2018-06-23T03:48:25.322Z,11.70
2018-06-23T03:50:53.984Z,11.70
2018-06-23T03:53:23.607Z,11.70
2018-06-23T03:55:53.096Z,11.70
2018-06-23T03:58:21.827Z,11.80
2018-06-23T04:00:57.919Z,11.70
2018-06-23T04:03:28.185Z,11.70
2018-06-23T04:05:56.930Z,11.80
2018-06-23T04:08:25.815Z,11.80
2018-06-23T04:10:54.473Z,11.80
2018-06-23T04:13:24.360Z,11.80
2018-06-23T04:15:53.186Z,11.80
2018-06-23T04:18:22.024Z,11.90
2018-06-23T04:20:50.593Z,12.00
2018-06-23T04:23:19.374Z,12.10
2018-06-23T04:25:47.961Z,12.10
2018-06-23T04:28:16.560Z,12.10
2018-06-23T04:30:45.392Z,12.10
2018-06-23T04:33:15.057Z,12.20
2018-06-23T04:35:44.019Z,12.20
2018-06-23T04:38:12.846Z,12.20
2018-06-23T04:40:41.472Z,12.30
2018-06-23T04:43:10.147Z,12.30
2018-06-23T04:45:39.793Z,12.30
2018-06-23T04:48:08.453Z,12.30
2018-06-23T04:50:37.090Z,12.20
2018-06-23T04:53:05.686Z,12.20
2018-06-23T04:55:34.326Z,12.20
2018-06-23T04:58:02.946Z,12.20
2018-06-23T05:00:31.533Z,12.30
2018-06-23T05:03:00.596Z,12.30
2018-06-23T05:05:30.122Z,12.30
2018-06-23T05:07:59.612Z,12.20
2018-06-23T05:10:28.974Z,12.20
2018-06-23T05:12:57.589Z,12.30
2018-06-23T05:15:26.171Z,12.20
2018-06-23T05:17:54.828Z,12.20
2018-06-23T05:20:23.424Z,12.20
2018-06-23T05:22:52.270Z,12.20
2018-06-23T05:25:21.861Z,12.20
2018-06-23T05:27:50.670Z,12.30
2018-06-23T05:30:19.411Z,12.30
2018-06-23T05:32:48.020Z,12.30
2018-06-23T05:35:16.575Z,12.20
2018-06-23T05:37:45.723Z,12.40
2018-06-23T05:40:14.271Z,12.60
2018-06-23T05:42:42.915Z,12.60
2018-06-23T05:45:11.604Z,12.70
2018-06-23T05:47:40.155Z,12.80
2018-06-23T05:50:09.051Z,12.70
2018-06-23T05:52:37.686Z,12.80
2018-06-23T05:55:06.602Z,12.80
2018-06-23T05:57:35.255Z,12.90
2018-06-23T06:00:04.096Z,12.80
2018-06-23T06:02:33.244Z,12.80
2018-06-23T06:05:01.839Z,12.90
2018-06-23T06:07:30.472Z,12.90
2018-06-23T06:09:59.096Z,12.80
2018-06-23T06:12:27.997Z,12.70
2018-06-23T06:14:57.984Z,12.80
2018-06-23T06:17:33.169Z,12.70
2018-06-23T06:20:03.652Z,12.70
2018-06-23T06:22:34.027Z,12.80
2018-06-23T06:25:02.711Z,12.80
2018-06-23T06:27:31.499Z,12.80
2018-06-23T06:30:00.854Z,12.90
2018-06-23T06:32:29.953Z,12.80
2018-06-23T06:34:58.884Z,12.90
2018-06-23T06:37:27.553Z,13.00
2018-06-23T06:39:56.153Z,13.10
2018-06-23T06:42:24.767Z,13.20
2018-06-23T06:44:53.399Z,13.20
2018-06-23T06:47:22.005Z,13.20
2018-06-23T06:49:50.690Z,13.20
2018-06-23T06:52:19.377Z,13.20
2018-06-23T06:54:49.379Z,13.10
2018-06-23T06:57:18.054Z,13.20
2018-06-23T06:59:46.864Z,13.30
2018-06-23T07:02:15.606Z,13.30
2018-06-23T07:04:44.391Z,13.30
2018-06-23T07:07:13.317Z,13.40
2018-06-23T07:09:41.958Z,13.50
2018-06-23T07:12:10.692Z,13.50
2018-06-23T07:14:39.320Z,13.50
2018-06-23T07:17:08.091Z,13.40
2018-06-23T07:19:36.744Z,13.20
2018-06-23T07:22:05.437Z,13.40
2018-06-23T07:24:34.112Z,13.40
2018-06-23T07:27:02.814Z,13.30
2018-06-23T07:29:31.524Z,13.40
2018-06-23T07:32:00.371Z,13.60
2018-06-23T07:34:29.091Z,13.40
2018-06-23T07:36:58.357Z,13.40
2018-06-23T07:39:27.613Z,13.60
2018-06-23T07:41:57.285Z,13.50
2018-06-23T07:44:26.123Z,13.50
2018-06-23T07:46:54.949Z,13.50
2018-06-23T07:49:23.609Z,13.50
2018-06-23T07:51:52.343Z,13.50
2018-06-23T07:54:21.087Z,13.40
2018-06-23T07:56:49.870Z,13.50
2018-06-23T07:59:18.532Z,13.60
2018-06-23T08:01:47.887Z,13.70
2018-06-23T08:04:16.591Z,13.60
2018-06-23T08:06:45.629Z,13.70
2018-06-23T08:11:42.711Z,13.70
2018-06-23T08:14:12.044Z,13.90
2018-06-23T08:16:42.061Z,14.10
2018-06-23T08:19:11.491Z,14.00
2018-06-23T08:21:40.876Z,14.00
2018-06-23T08:24:11.149Z,13.90
2018-06-23T08:26:40.160Z,14.00
2018-06-23T08:29:08.923Z,14.30
2018-06-23T08:31:37.503Z,14.60
2018-06-23T08:34:06.170Z,15.10
2018-06-23T08:36:34.826Z,15.10
2018-06-23T08:39:04.532Z,15.30
2018-06-23T08:41:33.201Z,15.60
2018-06-23T08:44:02.765Z,15.40
2018-06-23T08:46:31.464Z,15.30
2018-06-23T08:49:00.126Z,15.30
2018-06-23T08:51:29.098Z,15.40
2018-06-23T08:53:58.892Z,15.60
2018-06-23T08:56:27.612Z,15.90
2018-06-23T08:58:56.939Z,16.00
2018-06-23T09:01:25.991Z,16.50
2018-06-23T09:03:55.431Z,16.40
2018-06-23T09:06:24.770Z,17.10
2018-06-23T09:08:53.379Z,17.00
2018-06-23T09:11:21.999Z,16.90
2018-06-23T09:13:50.694Z,16.60
2018-06-23T09:16:19.409Z,16.00
2018-06-23T09:21:16.648Z,16.10
2018-06-23T09:23:45.336Z,16.30
2018-06-23T09:26:14.042Z,16.50
2018-06-23T09:28:43.168Z,16.90
2018-06-23T09:31:12.506Z,17.20
2018-06-23T09:33:41.254Z,17.20
2018-06-23T09:36:10.117Z,17.20
2018-06-23T09:38:38.730Z,17.10
2018-06-23T09:41:07.438Z,17.20
2018-06-23T09:43:36.180Z,17.40
2018-06-23T09:46:05.149Z,17.40
2018-06-23T09:48:33.974Z,17.80
2018-06-23T09:51:03.007Z,18.30
2018-06-23T09:53:31.920Z,18.20
2018-06-23T09:56:00.637Z,18.10
2018-06-23T09:58:29.322Z,17.90
2018-06-23T10:00:58.281Z,17.30
2018-06-23T10:03:26.921Z,17.40
2018-06-23T10:05:55.708Z,17.60
2018-06-23T10:08:24.380Z,17.90
2018-06-23T10:10:53.155Z,17.80
2018-06-23T10:13:21.785Z,18.40
2018-06-23T10:15:50.486Z,18.10
2018-06-23T10:18:19.131Z,17.60
2018-06-23T10:20:48.650Z,17.80
2018-06-23T10:23:17.990Z,18.40
2018-06-23T10:25:47.044Z,19.20
2018-06-23T10:28:15.823Z,19.80
2018-06-23T10:30:44.614Z,19.40
2018-06-23T10:33:13.384Z,19.10
2018-06-23T10:35:42.174Z,19.20
2018-06-23T10:38:10.856Z,19.40
2018-06-23T10:40:39.560Z,20.00
2018-06-23T10:43:08.322Z,20.50
2018-06-23T10:45:36.921Z,20.30
2018-06-23T10:48:06.058Z,20.10
2018-06-23T10:50:34.920Z,20.00
2018-06-23T10:53:03.587Z,19.60
2018-06-23T10:55:32.280Z,19.40
2018-06-23T10:58:01.562Z,19.20
2018-06-23T11:00:30.390Z,19.40
2018-06-23T11:02:58.970Z,19.40
2018-06-23T11:05:27.750Z,19.50
2018-06-23T11:07:56.409Z,19.60
2018-06-23T11:10:25.136Z,20.20
2018-06-23T11:12:56.269Z,20.50
2018-06-23T11:15:25.231Z,21.50
2018-06-23T11:17:53.869Z,21.20
2018-06-23T11:20:22.732Z,21.00
2018-06-23T11:22:51.602Z,20.10
2018-06-23T11:25:20.936Z,19.60
2018-06-23T11:27:49.794Z,19.30
2018-06-23T11:30:18.860Z,19.40
2018-06-23T11:32:47.451Z,20.00
2018-06-23T11:35:16.253Z,20.70
2018-06-23T11:37:45.065Z,21.60
2018-06-23T11:40:13.904Z,21.30
2018-06-23T11:42:42.522Z,20.90
2018-06-23T11:45:11.327Z,20.70
2018-06-23T11:47:39.997Z,20.60
2018-06-23T11:50:08.809Z,20.20
2018-06-23T11:52:37.611Z,19.60
2018-06-23T11:55:06.382Z,19.60
2018-06-23T11:57:35.073Z,20.00
2018-06-23T12:00:03.904Z,20.30
2018-06-23T12:02:32.582Z,20.50
2018-06-23T12:05:01.633Z,21.30
2018-06-23T12:07:30.260Z,21.60
2018-06-23T12:09:58.952Z,21.80
2018-06-23T12:12:28.304Z,21.70
2018-06-23T12:14:57.000Z,21.00
2018-06-23T12:17:25.651Z,20.60
2018-06-23T12:19:55.437Z,20.50
2018-06-23T12:22:24.388Z,19.90
2018-06-23T12:24:54.043Z,20.20
2018-06-23T12:27:24.999Z,20.10
2018-06-23T12:29:53.722Z,20.00
2018-06-23T12:32:22.470Z,20.90
2018-06-23T12:34:51.196Z,21.00
2018-06-23T12:37:20.080Z,20.80
2018-06-23T12:39:48.699Z,20.50
2018-06-23T12:42:18.181Z,20.90
2018-06-23T12:44:46.973Z,21.60
2018-06-23T12:47:15.687Z,21.90
2018-06-23T12:49:44.468Z,20.80
2018-06-23T12:52:13.045Z,20.50
2018-06-23T12:54:42.509Z,20.10
2018-06-23T12:57:15.244Z,19.80
2018-06-23T12:59:45.579Z,19.70
2018-06-23T13:02:14.365Z,20.40
2018-06-23T13:04:43.116Z,20.90
2018-06-23T13:07:12.651Z,21.10
2018-06-23T13:09:42.064Z,21.20
2018-06-23T13:12:10.704Z,21.70
2018-06-23T13:14:39.501Z,21.80
2018-06-23T13:17:08.325Z,20.90
2018-06-23T13:19:36.977Z,21.70
2018-06-23T13:22:06.054Z,21.80
2018-06-23T13:24:34.844Z,21.90
2018-06-23T13:27:03.579Z,21.50
2018-06-23T13:29:32.348Z,21.40
2018-06-23T13:32:00.978Z,21.10
2018-06-23T13:34:30.248Z,21.10
2018-06-23T13:36:59.614Z,20.70
2018-06-23T13:39:28.305Z,19.90
2018-06-23T13:41:56.954Z,20.20
2018-06-23T13:44:25.671Z,20.80
2018-06-23T13:46:54.564Z,21.10
2018-06-23T13:49:23.290Z,21.50
2018-06-23T13:51:52.497Z,21.20
2018-06-23T13:54:22.094Z,22.00
2018-06-23T13:56:50.795Z,22.50
2018-06-23T13:59:19.377Z,21.30
2018-06-23T14:01:48.047Z,21.00
2018-06-23T14:04:17.609Z,20.40
2018-06-23T14:06:47.649Z,20.30
2018-06-23T14:09:16.311Z,20.40
2018-06-23T14:11:45.062Z,21.10
2018-06-23T14:14:13.715Z,20.40
2018-06-23T14:16:42.427Z,20.40
2018-06-23T14:19:11.792Z,20.30
2018-06-23T14:21:40.705Z,20.00
2018-06-23T14:24:09.477Z,19.80
2018-06-23T14:26:39.092Z,19.40
2018-06-23T14:29:08.252Z,19.50
2018-06-23T14:31:36.936Z,19.40
2018-06-23T14:34:05.558Z,19.00
2018-06-23T14:36:34.177Z,18.80
2018-06-23T14:39:02.918Z,18.30
2018-06-23T14:41:31.708Z,17.10
2018-06-23T14:44:00.609Z,16.90
2018-06-23T14:46:29.253Z,16.90
2018-06-23T14:48:57.915Z,17.20
2018-06-23T14:51:26.915Z,17.00
2018-06-23T14:53:55.821Z,17.10
2018-06-23T14:56:24.414Z,17.20
2018-06-23T14:58:53.092Z,17.40
2018-06-23T15:01:22.542Z,17.20
2018-06-23T15:03:51.480Z,17.20
2018-06-23T15:06:21.527Z,17.00
2018-06-23T15:09:01.548Z,16.60
2018-06-23T15:11:41.599Z,16.70
2018-06-23T15:14:10.388Z,15.90
2018-06-23T15:16:39.343Z,15.80
2018-06-23T15:19:08.489Z,16.00
2018-06-23T15:21:37.953Z,16.30
2018-06-23T15:24:06.736Z,16.20
2018-06-23T15:26:35.300Z,16.20
2018-06-23T15:29:03.980Z,16.20
2018-06-23T15:31:32.735Z,16.10
2018-06-23T15:34:01.433Z,16.00
2018-06-23T15:36:30.292Z,15.80
2018-06-23T15:38:59.081Z,15.80
2018-06-23T15:41:27.714Z,15.90
2018-06-23T15:43:56.677Z,15.80
2018-06-23T15:46:25.329Z,15.70
2018-06-23T15:48:54.390Z,15.60
2018-06-23T15:53:51.337Z,15.70
2018-06-23T15:56:20.201Z,15.70
2018-06-23T15:58:48.900Z,15.80
2018-06-23T16:01:17.720Z,15.70
2018-06-23T16:03:46.544Z,15.80
2018-06-23T16:06:15.265Z,15.80
2018-06-23T16:08:44.777Z,15.90
2018-06-23T16:11:13.471Z,15.80
2018-06-23T16:13:42.203Z,15.80
2018-06-23T16:16:11.156Z,15.90
2018-06-23T16:18:39.803Z,15.90
2018-06-23T16:21:08.493Z,16.10
2018-06-23T16:23:38.001Z,16.20
2018-06-23T16:26:06.809Z,16.00
2018-06-23T16:28:35.422Z,15.90
2018-06-23T16:31:04.518Z,16.00
2018-06-23T16:33:33.133Z,15.90
2018-06-23T16:36:02.112Z,15.90
2018-06-23T16:38:30.743Z,15.90
2018-06-23T16:40:59.386Z,15.90
2018-06-23T16:43:27.946Z,15.80
2018-06-23T16:45:56.584Z,15.80
2018-06-23T16:48:25.591Z,15.80
2018-06-23T16:50:54.201Z,15.80
2018-06-23T16:53:22.840Z,15.80
2018-06-23T16:55:51.828Z,15.70
2018-06-23T16:58:20.533Z,15.70
2018-06-23T17:00:49.156Z,15.70
2018-06-23T17:03:17.802Z,15.60
2018-06-23T17:05:46.418Z,15.40
2018-06-23T17:08:15.053Z,15.20
2018-06-23T17:10:44.061Z,15.00
2018-06-23T17:13:12.878Z,14.80
2018-06-23T17:15:42.701Z,14.70
2018-06-23T17:18:12.175Z,14.60
2018-06-23T17:20:40.728Z,14.70
2018-06-23T17:23:09.431Z,14.50
2018-06-23T17:25:38.102Z,14.30
2018-06-23T17:28:07.007Z,14.30
2018-06-23T17:30:35.786Z,14.20
2018-06-23T17:33:04.447Z,14.30
2018-06-23T17:35:34.995Z,14.30
2018-06-23T17:38:03.777Z,14.50
2018-06-23T17:40:32.491Z,14.50
2018-06-23T17:43:01.593Z,14.40
2018-06-23T17:45:30.330Z,14.50
2018-06-23T17:47:59.018Z,14.50
2018-06-23T17:50:27.612Z,14.40
2018-06-23T17:52:56.591Z,14.40
2018-06-23T17:55:25.289Z,14.20
2018-06-23T17:57:54.599Z,14.30
2018-06-23T18:00:26.477Z,14.40
2018-06-23T18:02:55.230Z,14.40
2018-06-23T18:05:24.255Z,14.40
2018-06-23T18:07:52.936Z,14.40
2018-06-23T18:10:21.607Z,14.30
2018-06-23T18:12:50.181Z,14.30
2018-06-23T18:15:19.136Z,14.10
2018-06-23T18:17:47.757Z,14.00
2018-06-23T18:20:16.457Z,13.90
2018-06-23T18:22:45.204Z,13.90
2018-06-23T18:25:13.836Z,13.90
2018-06-23T18:27:42.588Z,14.00
2018-06-23T18:30:11.289Z,14.00
2018-06-23T18:32:39.922Z,14.00
2018-06-23T18:35:08.806Z,13.90
2018-06-23T18:37:37.551Z,14.00
2018-06-23T18:40:06.265Z,14.00
2018-06-23T18:42:35.462Z,13.90
2018-06-23T18:45:04.150Z,13.90
2018-06-23T18:47:33.669Z,13.90
2018-06-23T18:50:02.330Z,13.80
2018-06-23T18:52:30.965Z,13.80
2018-06-23T18:54:59.711Z,13.80
2018-06-23T18:57:28.403Z,13.80
2018-06-23T18:59:56.990Z,13.70
2018-06-23T19:02:25.559Z,13.70
2018-06-23T19:04:54.242Z,13.60
2018-06-23T19:07:23.107Z,13.60
2018-06-23T19:09:52.023Z,13.60
2018-06-23T19:12:20.912Z,13.60
2018-06-23T19:14:49.477Z,13.60
2018-06-23T19:17:19.042Z,13.50
2018-06-23T19:19:47.708Z,13.50
2018-06-23T19:22:16.598Z,13.50
2018-06-23T19:24:45.565Z,13.40
2018-06-23T19:27:14.672Z,13.40
2018-06-23T19:29:44.255Z,13.40
2018-06-23T19:32:13.005Z,13.40
2018-06-23T19:34:42.106Z,13.30
2018-06-23T19:39:39.021Z,13.30
2018-06-23T19:42:07.683Z,13.30
2018-06-23T19:44:37.199Z,13.30
2018-06-23T19:47:05.841Z,13.30
2018-06-23T19:49:34.612Z,13.30
2018-06-23T19:52:03.271Z,13.30
2018-06-23T19:54:31.792Z,13.20
2018-06-23T19:57:00.567Z,13.20
2018-06-23T19:59:29.107Z,13.20
2018-06-23T20:01:57.670Z,13.10
2018-06-23T20:04:26.403Z,13.20
2018-06-23T20:09:23.843Z,13.10
2018-06-23T20:11:53.338Z,13.00
2018-06-23T20:14:21.928Z,13.00
2018-06-23T20:16:50.577Z,13.00
2018-06-23T20:19:19.242Z,13.00
2018-06-23T20:21:47.874Z,12.90
2018-06-23T20:24:16.835Z,12.90
2018-06-23T20:26:46.183Z,12.90
2018-06-23T20:29:14.995Z,12.90
2018-06-23T20:31:43.883Z,12.90
2018-06-23T20:34:15.051Z,12.90
2018-06-23T20:36:43.800Z,12.90
2018-06-23T20:39:12.766Z,12.80
2018-06-23T20:41:41.781Z,12.80
2018-06-23T20:44:11.221Z,12.80
2018-06-23T20:46:41.047Z,12.80
2018-06-23T20:49:09.763Z,12.70
2018-06-23T20:51:38.397Z,12.70
2018-06-23T20:54:07.361Z,12.70
2018-06-23T20:56:36.496Z,12.80
2018-06-23T20:59:05.186Z,12.70
2018-06-23T21:01:34.164Z,12.70
2018-06-23T21:04:02.878Z,12.70
2018-06-23T21:06:31.511Z,12.70
2018-06-23T21:09:00.134Z,12.70
2018-06-23T21:11:28.737Z,12.70
2018-06-23T21:13:57.317Z,12.60
2018-06-23T21:16:25.929Z,12.60
2018-06-23T21:18:55.032Z,12.60
2018-06-23T21:21:23.555Z,12.60
2018-06-23T21:23:52.121Z,12.60
2018-06-23T21:26:20.757Z,12.50
2018-06-23T21:28:49.301Z,12.50
2018-06-23T21:31:17.997Z,12.50
2018-06-23T21:33:46.749Z,12.40
2018-06-23T21:36:16.196Z,12.40
2018-06-23T21:38:44.885Z,12.40
2018-06-23T21:41:13.589Z,12.40
2018-06-23T21:43:42.884Z,12.40
2018-06-23T21:46:11.964Z,12.30
2018-06-23T21:48:40.921Z,12.30
2018-06-23T21:51:09.636Z,12.40
2018-06-23T21:53:38.521Z,12.30
2018-06-23T21:56:07.283Z,12.30
2018-06-23T21:58:35.903Z,12.20
2018-06-23T22:01:04.937Z,12.30
2018-06-23T22:03:33.469Z,12.20
2018-06-23T22:06:02.077Z,12.20
2018-06-23T22:08:31.259Z,12.30
2018-06-23T22:10:59.879Z,12.20
2018-06-23T22:13:28.460Z,12.20
2018-06-23T22:15:57.049Z,12.20
2018-06-23T22:18:25.659Z,12.20
2018-06-23T22:20:54.276Z,12.10
2018-06-23T22:23:22.892Z,12.10
2018-06-23T22:25:51.522Z,12.10
2018-06-23T22:28:20.539Z,12.10
2018-06-23T22:30:49.119Z,12.00
2018-06-23T22:33:17.719Z,12.00
2018-06-23T22:38:17.629Z,12.00
2018-06-23T22:40:46.251Z,11.90
2018-06-23T22:43:14.768Z,12.00
2018-06-23T22:45:43.596Z,12.00
2018-06-23T22:50:40.651Z,12.10
2018-06-23T22:53:09.215Z,12.10
2018-06-23T22:55:37.715Z,12.10
2018-06-23T22:58:06.566Z,12.10
2018-06-23T23:00:35.139Z,12.10
2018-06-23T23:03:03.752Z,12.10
2018-06-23T23:05:32.688Z,12.10
2018-06-23T23:08:01.232Z,12.10
2018-06-23T23:10:29.894Z,12.20
2018-06-23T23:12:58.467Z,12.20
2018-06-23T23:15:27.706Z,12.20
2018-06-23T23:17:56.737Z,12.20
2018-06-23T23:20:25.337Z,12.20
2018-06-23T23:22:54.004Z,12.20
2018-06-23T23:25:22.548Z,12.20
2018-06-23T23:27:51.157Z,12.20
2018-06-23T23:30:19.701Z,12.20
2018-06-23T23:32:48.363Z,12.20
2018-06-23T23:35:16.958Z,12.20
2018-06-23T23:37:46.590Z,12.20
2018-06-23T23:40:15.674Z,12.20
2018-06-23T23:42:44.322Z,12.20
2018-06-23T23:45:12.931Z,12.20
2018-06-23T23:47:41.499Z,12.20
2018-06-23T23:50:10.195Z,12.20
2018-06-23T23:52:38.957Z,12.20
2018-06-23T23:55:07.529Z,12.20
2018-06-23T23:57:36.055Z,12.20
